Time;durP1;ratioP1;P1;durP2;ratioP2;P2;SDS_P1;SDS_P2;PMS_P1;PMS_P2;Temp;Humidity;BMP_temperature;BMP_pressure;BME280_temperature;BME280_humidity;BME280_pressure;Samples;Min_cycle;Max_cycle;Signal;HPM_P1;HPM_P2
2021/11/11 00:01:38;;;;;;;4.43;4.03;;;17.70;61.90;;;;;;5055034;28;20174;-61
2021/11/11 00:04:04;;;;;;;4.55;4.07;;;17.70;61.90;;;;;;5055030;28;20183;-60
2021/11/11 00:06:29;;;;;;;5.75;4.43;;;17.70;61.80;;;;;;5055211;28;20511;-59
2021/11/11 00:08:54;;;;;;;4.13;3.72;;;17.70;61.80;;;;;;5055533;28;20214;-59
2021/11/11 00:11:20;;;;;;;4.60;4.20;;;17.60;61.70;;;;;;5054708;28;20197;-59
2021/11/11 00:13:45;;;;;;;4.45;4.05;;;17.60;61.70;;;;;;5055076;28;20209;-61
2021/11/11 00:16:11;;;;;;;4.57;4.03;;;17.60;61.70;;;;;;5055175;28;20206;-61
2021/11/11 00:18:37;;;;;;;5.43;3.95;;;17.60;61.70;;;;;;5054113;28;20237;-61
2021/11/11 00:21:03;;;;;;;4.32;3.92;;;17.60;61.70;;;;;;5055394;28;20250;-61
2021/11/11 00:23:28;;;;;;;4.75;4.35;;;17.60;61.80;;;;;;5055084;28;20545;-61
2021/11/11 00:25:54;;;;;;;4.53;4.13;;;17.60;61.70;;;;;;5054399;28;20175;-60
2021/11/11 00:28:19;;;;;;;5.93;4.00;;;17.60;61.70;;;;;;5055039;28;20582;-61
2021/11/11 00:30:45;;;;;;;4.65;4.25;;;17.60;61.70;;;;;;5054696;28;20183;-61
2021/11/11 00:33:10;;;;;;;4.10;3.70;;;17.60;61.70;;;;;;5054494;28;20171;-62
2021/11/11 00:35:37;;;;;;;4.95;4.47;;;17.50;61.60;;;;;;5054862;28;20298;-61
2021/11/11 00:38:02;;;;;;;7.13;4.30;;;17.50;61.60;;;;;;5055063;28;20210;-62
2021/11/11 00:40:29;;;;;;;4.63;4.03;;;17.50;61.60;;;;;;5054194;28;20167;-61
2021/11/11 00:42:54;;;;;;;4.97;4.47;;;17.50;61.60;;;;;;5055013;28;20479;-61
2021/11/11 00:45:23;;;;;;;6.00;4.45;;;17.50;61.60;;;;;;5054540;28;20181;-60
2021/11/11 00:47:51;;;;;;;6.10;4.65;;;17.50;61.60;;;;;;5053972;28;20212;-60
2021/11/11 00:50:19;;;;;;;5.07;4.30;;;17.50;61.60;;;;;;5054238;28;20190;-60
2021/11/11 00:52:44;;;;;;;4.82;4.43;;;17.50;61.60;;;;;;5054093;28;20186;-60
2021/11/11 00:55:10;;;;;;;5.10;4.68;;;17.40;61.50;;;;;;5054001;28;20207;-61
2021/11/11 00:57:36;;;;;;;4.90;4.35;;;17.40;61.50;;;;;;5054394;28;20167;-61
2021/11/11 01:00:04;;;;;;;4.90;4.50;;;17.50;61.50;;;;;;5053736;28;20171;-59
2021/11/11 01:02:30;;;;;;;4.20;3.80;;;17.40;61.50;;;;;;5053379;28;20213;-60
2021/11/11 01:04:55;;;;;;;4.50;3.80;;;17.40;61.40;;;;;;5054691;28;20262;-61
2021/11/11 01:07:21;;;;;;;5.35;4.22;;;17.40;61.40;;;;;;5053638;28;20167;-60
2021/11/11 01:09:47;;;;;;;4.57;4.18;;;17.40;61.50;;;;;;5053091;28;20665;-60
2021/11/11 01:12:12;;;;;;;4.72;4.00;;;17.40;61.50;;;;;;5054302;28;20308;-60
2021/11/11 01:14:38;;;;;;;4.90;4.13;;;17.40;61.40;;;;;;5053421;28;20284;-61
2021/11/11 01:17:04;;;;;;;4.60;4.20;;;17.40;61.50;;;;;;5054481;28;20626;-60
2021/11/11 01:19:29;;;;;;;5.15;4.65;;;17.40;61.40;;;;;;5054264;28;20206;-60
2021/11/11 01:21:55;;;;;;;4.70;4.20;;;17.40;61.40;;;;;;5053741;28;20179;-60
2021/11/11 01:24:20;;;;;;;5.38;4.85;;;17.30;61.40;;;;;;5053976;28;20233;-60
2021/11/11 01:26:46;;;;;;;5.05;4.55;;;17.30;61.40;;;;;;5053898;28;20205;-61
2021/11/11 01:29:11;;;;;;;4.40;3.97;;;17.30;61.40;;;;;;5053261;28;20179;-60
2021/11/11 01:31:40;;;;;;;4.65;4.25;;;17.30;61.40;;;;;;5053656;28;20254;-60
2021/11/11 01:34:05;;;;;;;4.45;4.05;;;17.30;61.40;;;;;;5053948;28;20533;-60
2021/11/11 01:36:31;;;;;;;5.05;3.80;;;17.30;61.40;;;;;;5053089;28;20183;-61
2021/11/11 01:38:57;;;;;;;6.15;4.40;;;17.30;61.40;;;;;;5054171;28;20229;-60
2021/11/11 01:41:22;;;;;;;4.82;4.35;;;17.30;61.40;;;;;;5053858;28;20179;-60
2021/11/11 01:43:48;;;;;;;5.65;4.75;;;17.30;61.30;;;;;;5052854;28;21090;-60
2021/11/11 01:46:13;;;;;;;4.40;4.00;;;17.30;61.40;;;;;;5053842;28;20227;-60
2021/11/11 01:48:39;;;;;;;4.60;4.20;;;17.30;61.40;;;;;;5053618;28;20177;-60
2021/11/11 01:51:04;;;;;;;5.30;4.80;;;17.20;61.30;;;;;;5052887;28;20167;-60
2021/11/11 01:53:30;;;;;;;5.03;4.40;;;17.30;61.40;;;;;;5053369;28;20171;-62
2021/11/11 01:55:55;;;;;;;5.07;4.68;;;17.20;61.30;;;;;;5053464;28;20674;-61
2021/11/11 01:58:21;;;;;;;4.60;4.20;;;17.20;61.20;;;;;;5052634;28;20630;-61
2021/11/11 02:00:49;;;;;;;5.45;4.63;;;17.20;61.20;;;;;;5053325;28;20199;-61
2021/11/11 02:03:14;;;;;;;5.15;4.68;;;17.20;61.20;;;;;;5053335;28;20186;-61
2021/11/11 02:05:40;;;;;;;4.75;4.30;;;17.20;61.10;;;;;;5052918;28;20267;-60
2021/11/11 02:08:05;;;;;;;5.38;4.65;;;17.20;61.20;;;;;;5053382;28;20626;-60
2021/11/11 02:10:33;;;;;;;5.63;4.97;;;17.20;61.20;;;;;;5052242;28;20630;-59
2021/11/11 02:12:59;;;;;;;5.35;4.50;;;17.20;61.10;;;;;;5053209;28;20233;-61
2021/11/11 02:15:25;;;;;;;5.18;4.68;;;17.20;61.20;;;;;;5053301;28;20211;-60
2021/11/11 02:17:50;;;;;;;5.55;5.05;;;17.20;61.20;;;;;;5052795;28;20254;-60
2021/11/11 02:20:21;;;;;;;5.60;5.07;;;17.20;61.20;;;;;;5053252;28;20183;-60
2021/11/11 02:22:46;;;;;;;6.80;5.22;;;17.20;61.10;;;;;;5052948;28;20171;-61
2021/11/11 02:25:13;;;;;;;5.28;4.78;;;17.20;61.10;;;;;;5052383;28;20189;-61
2021/11/11 02:27:39;;;;;;;5.10;4.60;;;17.10;61.10;;;;;;5052701;28;20278;-60
2021/11/11 02:30:05;;;;;;;6.47;5.30;;;17.10;61.10;;;;;;5053345;28;20212;-61
2021/11/11 02:32:32;;;;;;;5.50;4.97;;;17.10;61.10;;;;;;5052244;28;20205;-61
2021/11/11 02:34:57;;;;;;;5.25;4.75;;;17.10;61.20;;;;;;5053277;28;20211;-61
2021/11/11 02:37:26;;;;;;;5.43;4.93;;;17.10;61.10;;;;;;5053014;28;20249;-61
2021/11/11 02:39:51;;;;;;;7.22;4.82;;;17.10;61.20;;;;;;5050538;28;20213;-60
2021/11/11 02:42:17;;;;;;;5.78;4.55;;;17.10;61.10;;;;;;5053036;28;20213;-61
2021/11/11 02:44:43;;;;;;;5.32;4.82;;;17.10;61.10;;;;;;5052662;28;20171;-61
2021/11/11 02:47:08;;;;;;;5.15;4.65;;;17.10;61.10;;;;;;5051759;28;20326;-62
2021/11/11 02:49:34;;;;;;;6.28;5.10;;;17.10;61.10;;;;;;5052332;28;20183;-60
2021/11/11 02:52:00;;;;;;;5.45;4.90;;;17.10;61.00;;;;;;5052389;28;20175;-60
2021/11/11 02:54:26;;;;;;;4.97;4.57;;;17.10;61.20;;;;;;5051664;28;20261;-61
2021/11/11 02:56:51;;;;;;;5.35;4.82;;;17.10;61.20;;;;;;5052839;28;20179;-61
2021/11/11 02:59:17;;;;;;;5.93;5.13;;;17.10;61.10;;;;;;5052331;28;20630;-62
2021/11/11 03:01:42;;;;;;;5.28;4.78;;;17.10;61.10;;;;;;5051465;28;20179;-61
2021/11/11 03:04:08;;;;;;;5.63;5.13;;;17.10;61.10;;;;;;5052393;28;20172;-60
2021/11/11 03:06:33;;;;;;;6.13;5.15;;;17.10;61.10;;;;;;5051406;28;20186;-60
2021/11/11 03:09:00;;;;;;;6.00;5.40;;;17.00;61.00;;;;;;5050564;28;20631;-60
2021/11/11 03:11:32;;;;;;;5.45;4.80;;;17.00;61.00;;;;;;5052420;28;20502;-61
2021/11/11 03:13:57;;;;;;;6.18;5.57;;;17.00;61.00;;;;;;5051399;28;20257;-61
2021/11/11 03:16:23;;;;;;;5.90;5.32;;;17.00;61.10;;;;;;5052193;28;20517;-61
2021/11/11 03:18:49;;;;;;;6.45;5.05;;;17.00;61.00;;;;;;5051696;28;20189;-60
2021/11/11 03:21:14;;;;;;;5.85;5.07;;;17.00;61.10;;;;;;5051434;28;20175;-60
2021/11/11 03:23:40;;;;;;;5.78;4.95;;;17.00;61.00;;;;;;5051535;28;20545;-61
2021/11/11 03:26:05;;;;;;;5.90;5.30;;;17.00;61.10;;;;;;5051333;28;20171;-60
2021/11/11 03:28:31;;;;;;;6.00;5.22;;;17.00;61.00;;;;;;5051222;28;20182;-60
2021/11/11 03:30:56;;;;;;;6.38;5.28;;;17.00;61.00;;;;;;5051828;28;20688;-61
2021/11/11 03:33:22;;;;;;;6.20;5.03;;;17.00;61.10;;;;;;5051932;28;20179;-61
2021/11/11 03:35:47;;;;;;;6.00;5.43;;;17.00;61.20;;;;;;5050697;28;20645;-60
2021/11/11 03:38:13;;;;;;;6.00;5.28;;;17.00;61.20;;;;;;5051509;28;20540;-61
2021/11/11 03:40:41;;;;;;;5.78;5.28;;;17.00;61.20;;;;;;5051548;28;20198;-61
2021/11/11 03:43:07;;;;;;;5.50;5.00;;;17.00;61.20;;;;;;5051093;28;20183;-61
2021/11/11 03:45:33;;;;;;;5.78;5.25;;;17.00;61.10;;;;;;5051192;28;20194;-60
2021/11/11 03:47:58;;;;;;;5.80;5.28;;;16.90;61.00;;;;;;5051798;28;20183;-60
2021/11/11 03:50:24;;;;;;;6.03;5.43;;;16.90;61.10;;;;;;5050715;28;20186;-60
2021/11/11 03:52:51;;;;;;;5.60;5.10;;;16.90;61.10;;;;;;5051259;28;20262;-61
2021/11/11 03:55:17;;;;;;;5.75;5.25;;;17.00;61.20;;;;;;5051533;28;20241;-61
2021/11/11 03:57:43;;;;;;;6.03;5.45;;;16.90;61.20;;;;;;5050702;28;20171;-61
2021/11/11 04:00:11;;;;;;;5.72;5.10;;;16.90;61.10;;;;;;5051630;28;20173;-62
2021/11/11 04:02:36;;;;;;;5.95;5.35;;;16.90;61.10;;;;;;5051291;28;20171;-61
2021/11/11 04:05:02;;;;;;;6.45;5.75;;;16.90;61.20;;;;;;5050759;28;20181;-61
2021/11/11 04:07:27;;;;;;;6.00;5.50;;;16.90;61.20;;;;;;5051366;28;20224;-61
2021/11/11 04:09:53;;;;;;;6.57;5.88;;;16.90;61.10;;;;;;5050656;28;20202;-59
2021/11/11 04:12:18;;;;;;;6.18;5.32;;;16.90;61.20;;;;;;5051552;28;20171;-60
2021/11/11 04:14:44;;;;;;;6.82;5.72;;;16.90;61.20;;;;;;5051136;28;20203;-60
2021/11/11 04:17:09;;;;;;;5.93;5.38;;;16.90;61.20;;;;;;5050578;28;20175;-62
2021/11/11 04:19:35;;;;;;;6.13;5.50;;;16.90;61.20;;;;;;5051121;28;20619;-62
2021/11/11 04:22:00;;;;;;;6.75;6.07;;;16.90;61.20;;;;;;5051161;28;20187;-60
2021/11/11 04:24:26;;;;;;;6.43;5.45;;;16.90;61.20;;;;;;5050729;28;20630;-61
2021/11/11 04:29:42;;;;;;;5.97;5.38;;;16.80;61.10;;;;;;5050984;28;20182;-61
2021/11/11 04:32:10;;;;;;;5.28;4.78;;;16.90;61.20;;;;;;5050678;28;20530;-60
2021/11/11 04:34:37;;;;;;;5.65;5.10;;;16.80;61.10;;;;;;5050671;28;20618;-60
2021/11/11 04:48:06;;;;;;;7.03;5.85;;;16.80;61.10;;;;;;5054423;28;20572;-59
2021/11/11 04:51:06;;;;;;;6.00;5.15;;;16.80;61.10;;;;;;5054457;28;20635;-61
2021/11/11 05:01:50;;;;;;;5.85;5.03;;;16.80;61.10;;;;;;5054265;28;20198;-62
2021/11/11 05:04:15;;;;;;;6.30;5.70;;;16.80;61.10;;;;;;5054588;28;20190;-62
2021/11/11 05:06:41;;;;;;;6.18;5.38;;;16.80;61.10;;;;;;5053611;28;20187;-59
2021/11/11 05:09:06;;;;;;;6.45;5.85;;;16.80;61.10;;;;;;5054484;28;20179;-60
2021/11/11 05:11:32;;;;;;;5.95;5.43;;;16.80;61.10;;;;;;5054206;28;20171;-61
2021/11/11 05:13:58;;;;;;;6.05;5.45;;;16.70;61.10;;;;;;5053461;28;20182;-62
2021/11/11 05:16:23;;;;;;;6.43;5.82;;;16.70;61.00;;;;;;5054628;28;20518;-62
2021/11/11 05:18:49;;;;;;;6.75;6.00;;;16.70;61.10;;;;;;5054066;28;20175;-61
2021/11/11 05:21:14;;;;;;;6.78;6.00;;;16.70;61.10;;;;;;5053584;28;20171;-60
2021/11/11 05:23:40;;;;;;;7.10;5.78;;;16.80;61.10;;;;;;5053787;28;20168;-61
2021/11/11 05:26:06;;;;;;;6.53;5.55;;;16.70;61.10;;;;;;5054122;28;20587;-61
2021/11/11 05:28:32;;;;;;;6.03;5.53;;;16.70;61.10;;;;;;5053050;28;20233;-61
2021/11/11 05:30:57;;;;;;;5.72;5.22;;;16.70;61.10;;;;;;5054455;28;20179;-61
2021/11/11 05:33:23;;;;;;;6.15;5.55;;;16.70;61.10;;;;;;5054135;28;20222;-62
2021/11/11 05:35:49;;;;;;;5.78;5.28;;;16.70;61.10;;;;;;5052908;28;20310;-61
2021/11/11 05:38:14;;;;;;;5.97;5.32;;;16.70;61.10;;;;;;5053915;28;20171;-61
2021/11/11 05:40:40;;;;;;;6.18;5.57;;;16.70;61.10;;;;;;5053657;28;20175;-61
2021/11/11 05:43:05;;;;;;;7.47;6.13;;;16.70;61.10;;;;;;5052911;28;20167;-62
2021/11/11 05:45:31;;;;;;;7.78;6.00;;;16.70;61.10;;;;;;5053417;28;20179;-61
2021/11/11 05:47:56;;;;;;;5.95;5.35;;;16.70;61.10;;;;;;5053305;28;20178;-60
2021/11/11 05:50:22;;;;;;;7.80;5.53;;;16.70;61.10;;;;;;5052942;28;20175;-61
2021/11/11 05:52:47;;;;;;;5.60;5.10;;;16.60;61.10;;;;;;5053347;28;20183;-61
2021/11/11 05:55:13;;;;;;;6.55;5.35;;;16.70;61.10;;;;;;5053539;28;20211;-62
2021/11/11 05:57:38;;;;;;;6.25;5.65;;;16.60;61.10;;;;;;5052412;28;20171;-60
2021/11/11 06:00:12;;;;;;;6.22;5.63;;;16.60;61.10;;;;;;5053661;28;20185;-61
2021/11/11 06:02:37;;;;;;;6.38;5.72;;;16.60;61.10;;;;;;5051161;28;20192;-60
2021/11/11 06:05:03;;;;;;;6.22;5.63;;;16.70;61.20;;;;;;5053364;28;20548;-60
2021/11/11 06:07:28;;;;;;;6.15;5.55;;;16.60;61.10;;;;;;5053051;28;20544;-60
2021/11/11 06:09:54;;;;;;;6.72;6.03;;;16.60;61.10;;;;;;5052539;28;20221;-60
2021/11/11 06:12:19;;;;;;;6.40;5.80;;;16.60;61.10;;;;;;5053114;28;20209;-60
2021/11/11 06:14:45;;;;;;;6.35;5.75;;;16.60;61.10;;;;;;5053041;28;20543;-61
2021/11/11 06:17:10;;;;;;;6.50;5.90;;;16.60;61.10;;;;;;5052520;28;20652;-61
2021/11/11 06:19:36;;;;;;;6.35;5.75;;;16.70;61.10;;;;;;5053039;28;20194;-61
2021/11/11 06:22:03;;;;;;;6.60;6.00;;;16.60;61.10;;;;;;5053181;28;20197;-60
2021/11/11 06:24:29;;;;;;;6.82;6.13;;;16.60;61.10;;;;;;5052258;28;20183;-61
2021/11/11 06:26:54;;;;;;;5.32;4.93;;;16.60;61.10;;;;;;5052817;28;20229;-61
2021/11/11 06:29:20;;;;;;;7.13;6.20;;;16.50;61.10;;;;;;5051563;28;20524;-61
2021/11/11 06:31:45;;;;;;;6.00;5.40;;;16.60;61.10;;;;;;5052133;28;20182;-60
2021/11/11 06:34:11;;;;;;;5.60;5.10;;;16.60;61.10;;;;;;5052842;28;20199;-60
2021/11/11 06:36:37;;;;;;;6.47;5.75;;;16.60;61.10;;;;;;5052574;28;20410;-60
2021/11/11 06:39:03;;;;;;;6.60;5.88;;;16.60;61.10;;;;;;5052251;28;20611;-61
2021/11/11 06:41:29;;;;;;;7.15;5.45;;;16.60;61.10;;;;;;5052304;28;20182;-60
2021/11/11 06:43:54;;;;;;;6.22;5.65;;;16.50;61.10;;;;;;5052751;28;20202;-60
2021/11/11 06:46:20;;;;;;;6.07;5.47;;;16.60;61.10;;;;;;5051815;28;20665;-60
2021/11/11 06:48:46;;;;;;;6.55;5.95;;;16.50;61.10;;;;;;5052336;28;20577;-60
2021/11/11 06:51:11;;;;;;;5.78;5.28;;;16.50;61.10;;;;;;5052547;28;20535;-60
2021/11/11 06:53:36;;;;;;;6.10;5.50;;;16.50;61.10;;;;;;5051375;28;20595;-60
2021/11/11 06:56:05;;;;;;;6.18;5.57;;;16.60;61.10;;;;;;5052234;28;20233;-60
2021/11/11 06:58:31;;;;;;;6.25;5.65;;;16.50;61.10;;;;;;5052202;28;20171;-61
2021/11/11 07:00:58;;;;;;;6.40;5.80;;;16.50;61.10;;;;;;5050870;28;20282;-60
2021/11/11 07:03:23;;;;;;;6.25;5.65;;;16.50;61.10;;;;;;5052198;28;20677;-60
2021/11/11 07:05:49;;;;;;;6.32;5.80;;;16.50;61.10;;;;;;5051337;28;20175;-59
2021/11/11 07:08:15;;;;;;;6.18;5.57;;;16.50;61.10;;;;;;5052228;28;20241;-59
2021/11/11 07:10:41;;;;;;;6.90;5.90;;;16.50;61.10;;;;;;5052093;28;20178;-59
2021/11/11 07:13:07;;;;;;;6.13;5.63;;;16.50;61.10;;;;;;5051676;28;20251;-60
2021/11/11 07:15:33;;;;;;;6.40;5.75;;;16.50;61.10;;;;;;5051977;28;20215;-61
2021/11/11 07:18:00;;;;;;;6.15;5.65;;;16.50;61.10;;;;;;5052333;28;20236;-61
2021/11/11 07:20:25;;;;;;;5.82;5.28;;;16.50;61.10;;;;;;5051361;28;20183;-61
2021/11/11 07:22:54;;;;;;;6.15;5.55;;;16.50;61.10;;;;;;5051702;28;20517;-61
2021/11/11 07:25:23;;;;;;;5.95;5.45;;;16.50;61.10;;;;;;5051913;28;20203;-61
2021/11/11 07:27:49;;;;;;;6.45;5.85;;;16.50;61.10;;;;;;5051203;28;20181;-61
2021/11/11 07:30:16;;;;;;;5.10;4.70;;;16.50;61.10;;;;;;5052141;28;20179;-61
2021/11/11 07:32:41;;;;;;;6.70;6.00;;;16.50;61.10;;;;;;5051633;28;20218;-60
2021/11/11 07:35:09;;;;;;;6.13;5.40;;;16.50;61.00;;;;;;5051117;28;20285;-61
2021/11/11 07:37:36;;;;;;;6.18;5.55;;;16.60;61.00;;;;;;5051559;28;20205;-61
2021/11/11 07:40:02;;;;;;;5.57;5.10;;;16.60;61.20;;;;;;5051788;28;20254;-60
2021/11/11 07:42:28;;;;;;;6.70;5.97;;;16.80;60.90;;;;;;5051318;28;20594;-59
2021/11/11 07:44:53;;;;;;;6.25;5.50;;;16.90;60.40;;;;;;5051581;28;20214;-60
2021/11/11 07:47:27;;;;;;;6.15;5.55;;;17.20;60.30;;;;;;5051495;28;20269;-64
2021/11/11 07:49:53;;;;;;;5.93;5.30;;;17.40;60.00;;;;;;5050809;28;20470;-64
2021/11/11 07:52:19;;;;;;;6.25;5.53;;;17.60;59.70;;;;;;5051613;28;20175;-66
2021/11/11 07:54:45;;;;;;;11.50;5.30;;;17.80;59.40;;;;;;5051205;28;20309;-67
2021/11/11 07:57:11;;;;;;;6.97;5.35;;;18.00;59.30;;;;;;5051104;28;20167;-66
2021/11/11 07:59:39;;;;;;;6.75;5.55;;;18.20;59.10;;;;;;5051354;28;20171;-65
2021/11/11 08:02:05;;;;;;;9.38;5.63;;;18.30;58.80;;;;;;5051187;28;20593;-63
2021/11/11 08:04:31;;;;;;;7.13;5.18;;;18.40;58.80;;;;;;5051167;28;20206;-62
2021/11/11 08:06:56;;;;;;;6.40;5.60;;;18.70;58.40;;;;;;5051462;28;20175;-62
2021/11/11 08:09:22;;;;;;;7.55;5.45;;;18.70;58.10;;;;;;5050829;28;20281;-62
2021/11/11 08:11:49;;;;;;;5.93;5.07;;;18.80;57.90;;;;;;5053120;28;20201;-62
2021/11/11 08:14:15;;;;;;;5.35;4.85;;;18.90;57.80;;;;;;5055577;28;20199;-61
2021/11/11 08:16:40;;;;;;;5.68;5.18;;;18.90;57.90;;;;;;5056501;28;20638;-61
2021/11/11 08:19:06;;;;;;;7.82;5.13;;;19.00;57.80;;;;;;5065390;28;20170;-61
2021/11/11 08:21:31;;;;;;;5.97;4.85;;;19.00;57.90;;;;;;5063798;28;20178;-61
2021/11/11 08:23:57;;;;;;;8.25;4.55;;;19.00;57.90;;;;;;5064940;28;20174;-60
2021/11/11 08:26:22;;;;;;;6.18;4.65;;;18.90;58.00;;;;;;5066890;28;20188;-61
2021/11/11 08:28:48;;;;;;;7.78;5.15;;;18.80;58.10;;;;;;5060422;28;20171;-61
2021/11/11 08:31:13;;;;;;;5.28;4.78;;;18.80;58.30;;;;;;5054465;28;20171;-61
2021/11/11 08:33:39;;;;;;;9.10;5.60;;;18.70;58.40;;;;;;5054937;28;20171;-63
2021/11/11 08:36:05;;;;;;;6.63;5.05;;;18.60;58.60;;;;;;5054587;28;20686;-63
2021/11/11 08:38:30;;;;;;;6.35;5.07;;;18.60;58.70;;;;;;5054115;28;20177;-63
2021/11/11 08:40:56;;;;;;;5.70;5.13;;;18.50;58.80;;;;;;5055086;28;20258;-61
2021/11/11 08:43:21;;;;;;;7.20;5.13;;;18.50;59.10;;;;;;5055048;28;20250;-61
2021/11/11 08:45:49;;;;;;;7.47;5.53;;;18.40;59.20;;;;;;5053825;28;20277;-59
2021/11/11 08:48:14;;;;;;;6.82;5.30;;;18.20;59.60;;;;;;5054725;28;20189;-60
2021/11/11 08:50:40;;;;;;;8.27;5.43;;;18.20;60.10;;;;;;5054555;28;20262;-63
2021/11/11 08:53:07;;;;;;;5.90;5.30;;;18.10;60.40;;;;;;5054078;28;20272;-60
2021/11/11 08:55:33;;;;;;;7.25;5.50;;;18.10;60.40;;;;;;5054703;28;20219;-62
2021/11/11 08:57:59;;;;;;;7.80;5.03;;;18.20;60.10;;;;;;5054748;28;20175;-60
2021/11/11 09:00:27;;;;;;;7.32;5.05;;;18.20;59.90;;;;;;5054071;28;20194;-61
2021/11/11 09:02:54;;;;;;;7.40;5.25;;;18.20;59.90;;;;;;5054319;28;20202;-61
2021/11/11 09:05:20;;;;;;;5.65;4.88;;;18.20;59.90;;;;;;5053736;28;20179;-63
2021/11/11 09:07:47;;;;;;;6.88;4.90;;;18.10;60.10;;;;;;5054415;28;20220;-62
2021/11/11 09:10:14;;;;;;;6.72;5.05;;;18.10;60.20;;;;;;5054656;28;20187;-61
2021/11/11 09:12:39;;;;;;;6.95;5.18;;;18.10;60.40;;;;;;5053422;28;20232;-61
2021/11/11 09:15:10;;;;;;;6.43;4.80;;;18.00;60.40;;;;;;5054297;28;20235;-60
2021/11/11 09:17:35;;;;;;;6.18;5.28;;;18.00;60.50;;;;;;5053945;28;20224;-63
2021/11/11 09:20:02;;;;;;;6.75;4.90;;;18.00;60.50;;;;;;5053520;28;20258;-62
2021/11/11 09:22:31;;;;;;;6.60;5.00;;;18.10;60.40;;;;;;5053840;28;20187;-62
2021/11/11 09:24:56;;;;;;;6.45;4.95;;;18.10;60.30;;;;;;5053777;28;20650;-59
2021/11/11 09:27:22;;;;;;;7.18;5.28;;;18.10;60.10;;;;;;5055208;28;20270;-61
2021/11/11 09:29:47;;;;;;;7.60;5.45;;;18.10;60.10;;;;;;5065346;28;20633;-61
2021/11/11 09:32:13;;;;;;;6.53;4.95;;;18.00;60.10;;;;;;5058861;28;20175;-61
2021/11/11 09:34:38;;;;;;;6.07;4.82;;;18.00;60.10;;;;;;5052740;28;20242;-62
2021/11/11 09:37:04;;;;;;;5.57;5.00;;;18.00;60.10;;;;;;5073550;28;20178;-62
2021/11/11 09:39:30;;;;;;;6.47;5.55;;;18.00;60.20;;;;;;5073762;28;20540;-62
2021/11/11 09:41:58;;;;;;;9.13;5.40;;;17.90;60.30;;;;;;5073556;28;20196;-62
2021/11/11 09:44:24;;;;;;;5.78;4.80;;;17.90;60.40;;;;;;5063908;28;20182;-63
2021/11/11 09:46:50;;;;;;;7.18;5.30;;;17.90;60.20;;;;;;5053123;28;20249;-61
2021/11/11 09:49:16;;;;;;;7.10;5.07;;;18.00;60.10;;;;;;5053288;28;20179;-63
2021/11/11 09:51:42;;;;;;;5.90;5.30;;;18.00;60.00;;;;;;5053301;28;20207;-63
2021/11/11 09:59:31;;;;;;;7.30;5.60;;;18.00;59.80;;;;;;5053517;28;20221;-62
2021/11/11 10:01:56;;;;;;;7.68;5.38;;;18.00;60.00;;;;;;5066688;28;20174;-61
2021/11/11 10:04:22;;;;;;;6.47;5.13;;;17.90;60.00;;;;;;5073617;28;20172;-60
2021/11/11 10:06:51;;;;;;;6.28;5.32;;;17.90;60.20;;;;;;5073280;28;20266;-61
2021/11/11 10:09:18;;;;;;;8.57;5.90;;;17.90;60.30;;;;;;5072704;28;20254;-60
2021/11/11 10:11:51;;;;;;;6.68;5.90;;;17.90;60.40;;;;;;5073187;28;20189;-61
2021/11/11 10:14:21;;;;;;;7.97;5.95;;;17.90;60.30;;;;;;5073141;28;20206;-62
2021/11/11 10:17:01;;;;;;;8.63;6.63;;;17.90;60.30;;;;;;5071581;28;20522;-61
2021/11/11 10:19:28;;;;;;;9.90;5.75;;;18.00;60.60;;;;;;5073130;28;20574;-60
2021/11/11 10:22:09;;;;;;;6.93;5.78;;;18.00;60.30;;;;;;5073269;28;20179;-60
2021/11/11 10:24:50;;;;;;;7.80;5.25;;;18.10;60.30;;;;;;5072044;28;20182;-60
2021/11/11 10:27:37;;;;;;;7.78;6.07;;;18.20;60.20;;;;;;5073114;28;20607;-60
2021/11/11 10:30:25;;;;;;;7.43;5.85;;;18.30;60.10;;;;;;5072377;28;20224;-62
2021/11/11 10:33:11;;;;;;;7.80;5.45;;;18.40;60.10;;;;;;5072540;28;20201;-61
2021/11/11 10:35:38;;;;;;;7.68;5.18;;;18.50;60.10;;;;;;5062154;28;20207;-61
2021/11/11 10:38:09;;;;;;;9.07;5.75;;;18.60;59.90;;;;;;5052119;28;20642;-65
2021/11/11 10:40:42;;;;;;;7.15;5.82;;;18.60;59.70;;;;;;5052552;28;20535;-62
2021/11/11 10:43:16;;;;;;;8.15;5.53;;;18.80;59.60;;;;;;5052720;28;20225;-62
2021/11/11 10:45:44;;;;;;;7.95;5.15;;;18.90;59.30;;;;;;5051655;28;20219;-61
2021/11/11 10:48:11;;;;;;;9.63;5.47;;;19.00;59.70;;;;;;5052720;28;20190;-62
2021/11/11 10:50:42;;;;;;;6.03;5.43;;;19.10;58.70;;;;;;5052330;28;20278;-61
2021/11/11 10:53:09;;;;;;;7.32;5.40;;;19.20;58.50;;;;;;5051810;28;20245;-61
2021/11/11 10:55:35;;;;;;;7.25;6.03;;;19.30;58.30;;;;;;5051937;28;20653;-61
2021/11/11 10:58:05;;;;;;;6.47;5.80;;;19.40;57.90;;;;;;5051680;28;20261;-62
2021/11/11 11:00:43;;;;;;;6.70;5.47;;;19.60;57.70;;;;;;5052168;28;20539;-61
2021/11/11 11:03:19;;;;;;;5.88;5.30;;;19.60;57.60;;;;;;5052389;28;20261;-62
2021/11/11 11:05:46;;;;;;;7.07;5.18;;;19.60;57.60;;;;;;5051212;28;20530;-61
2021/11/11 11:08:15;;;;;;;6.85;5.35;;;19.60;57.60;;;;;;5052259;28;20267;-60
2021/11/11 11:10:42;;;;;;;9.20;5.05;;;19.50;57.70;;;;;;5052048;28;20233;-62
2021/11/11 11:13:10;;;;;;;6.75;5.55;;;19.40;57.80;;;;;;5051350;28;20183;-61
2021/11/11 11:15:42;;;;;;;6.85;5.55;;;19.30;58.00;;;;;;5051832;28;20229;-62
2021/11/11 11:18:08;;;;;;;6.03;5.40;;;19.20;58.10;;;;;;5052017;28;20635;-61
2021/11/11 11:20:33;;;;;;;7.40;5.03;;;19.20;58.30;;;;;;5051198;28;20206;-61
2021/11/11 11:23:16;;;;;;;7.85;5.63;;;19.10;59.10;;;;;;5052179;28;20249;-61
2021/11/11 11:25:54;;;;;;;5.95;5.30;;;19.00;58.50;;;;;;5051886;28;20225;-64
2021/11/11 11:28:50;;;;;;;7.03;5.38;;;19.00;58.60;;;;;;5051717;28;20207;-61
2021/11/11 11:31:50;;;;;;;6.75;5.88;;;18.90;58.80;;;;;;5041493;28;20179;-62
2021/11/11 11:34:27;;;;;;;8.20;6.38;;;18.80;58.90;;;;;;5051314;28;20189;-66
2021/11/11 11:37:04;;;;;;;9.43;7.22;;;18.70;59.10;;;;;;5051392;28;20265;-66
2021/11/11 11:39:37;;;;;;;11.05;6.70;;;18.70;59.10;;;;;;5051378;28;20171;-65
2021/11/11 11:42:11;;;;;;;7.68;6.45;;;18.70;59.10;;;;;;5051081;28;20179;-63
2021/11/11 11:44:44;;;;;;;10.38;6.47;;;18.80;59.00;;;;;;5051832;28;20329;-66
2021/11/11 11:47:21;;;;;;;10.00;6.22;;;18.80;59.00;;;;;;5050520;28;20237;-65
2021/11/11 11:49:51;;;;;;;7.20;5.68;;;18.90;58.70;;;;;;5051347;28;20179;-65
2021/11/11 11:52:17;;;;;;;7.35;5.95;;;18.90;58.80;;;;;;5051695;28;20578;-65
2021/11/11 11:57:50;;;;;;;7.32;6.07;;;18.80;59.50;;;;;;5031860;28;20186;-65
2021/11/11 12:03:15;;;;;;;7.47;5.95;;;18.70;59.20;;;;;;5050856;28;20485;-67
2021/11/11 12:11:30;;;;;;;8.25;6.47;;;18.70;59.40;;;;;;5050656;28;20229;-62
2021/11/11 12:14:07;;;;;;;8.07;6.20;;;18.70;59.30;;;;;;5051161;28;20634;-65
2021/11/11 12:17:18;;;;;;;11.88;6.57;;;18.60;59.20;;;;;;5050473;28;20266;-64
2021/11/11 12:39:51;;;;;;;7.95;6.00;;;18.50;59.50;;;;;;5070996;28;20559;-66
2021/11/11 12:42:35;;;;;;;5.72;5.22;;;18.60;59.40;;;;;;5071333;28;20175;-66
2021/11/11 12:45:18;;;;;;;6.95;6.20;;;18.60;59.40;;;;;;5070387;28;20660;-65
2021/11/11 12:48:05;;;;;;;7.03;6.10;;;18.60;59.40;;;;;;5070680;28;20229;-65
2021/11/11 12:50:36;;;;;;;6.55;5.88;;;18.50;59.50;;;;;;5070027;28;20278;-65
2021/11/11 12:53:11;;;;;;;8.48;5.90;;;18.50;59.60;;;;;;5071328;28;20166;-64
2021/11/11 12:55:49;;;;;;;6.43;5.05;;;18.40;59.70;;;;;;5070239;28;20676;-65
2021/11/11 12:58:16;;;;;;;6.22;5.55;;;18.40;59.80;;;;;;5070848;28;20194;-64
2021/11/11 13:00:49;;;;;;;5.85;5.25;;;18.40;59.80;;;;;;5074164;28;20182;-65
2021/11/11 13:03:15;;;;;;;6.68;5.70;;;18.50;59.60;;;;;;5074633;28;20559;-65
2021/11/11 13:05:52;;;;;;;5.78;5.22;;;18.50;59.50;;;;;;5073647;28;20174;-64
2021/11/11 13:08:21;;;;;;;7.28;5.80;;;18.60;59.40;;;;;;5074686;28;20185;-65
2021/11/11 13:11:00;;;;;;;5.93;5.32;;;18.60;59.40;;;;;;5074137;28;20171;-65
2021/11/11 13:13:26;;;;;;;6.72;5.30;;;18.60;59.40;;;;;;5073563;28;20174;-64
2021/11/11 13:16:01;;;;;;;6.75;5.97;;;18.50;59.40;;;;;;5074142;28;20256;-62
2021/11/11 13:18:44;;;;;;;8.10;6.47;;;18.50;59.50;;;;;;5074238;28;20471;-63
2021/11/11 13:22:10;;;;;;;9.93;6.97;;;18.40;59.60;;;;;;5074252;28;20185;-67
2021/11/11 14:00:32;;;;;;;8.10;5.40;;;18.50;60.10;;;;;;5053514;28;20707;-63
2021/11/11 15:16:44;;;;;;;5.43;4.90;;;18.30;60.50;;;;;;4979184;28;20221;-62
2021/11/11 15:19:40;;;;;;;6.07;5.38;;;18.30;60.50;;;;;;4989599;28;20219;-62
2021/11/11 16:02:08;;;;;;;6.45;5.85;;;18.20;60.00;;;;;;5070299;28;20286;-64
2021/11/11 16:21:01;;;;;;;8.45;7.35;;;18.20;59.60;;;;;;5070904;28;20173;-64
2021/11/11 16:26:19;;;;;;;9.55;6.90;;;18.20;59.70;;;;;;5071387;28;20648;-62
2021/11/11 16:28:49;;;;;;;8.70;6.70;;;18.30;59.80;;;;;;5070467;28;20175;-63
2021/11/11 16:31:16;;;;;;;8.07;7.07;;;18.30;59.80;;;;;;5070867;28;20664;-63
2021/11/11 16:33:42;;;;;;;9.10;7.05;;;18.30;59.80;;;;;;5073996;28;20185;-61
2021/11/11 16:36:08;;;;;;;8.00;6.63;;;18.40;59.70;;;;;;5059791;28;20211;-61
2021/11/11 16:38:34;;;;;;;10.50;6.97;;;18.50;59.40;;;;;;5054560;28;20267;-61